createdAt,value
2022-11-02T00:00:51.935Z,38.50
2022-11-02T00:03:18.831Z,39.72
2022-11-02T00:05:48.597Z,41.10
2022-11-02T00:08:16.877Z,47.25
2022-11-02T00:10:45.667Z,44.38
2022-11-02T00:13:17.115Z,45.35
2022-11-02T00:15:43.980Z,40.50
2022-11-02T00:18:12.687Z,37.65
2022-11-02T00:20:45.906Z,39.30
2022-11-02T00:23:14.524Z,45.03
2022-11-02T00:25:47.135Z,37.35
2022-11-02T00:28:17.536Z,38.95
2022-11-02T00:33:14.536Z,39.33
2022-11-02T00:35:44.512Z,38.78
2022-11-02T00:38:11.575Z,39.25
2022-11-02T00:40:38.642Z,40.00
2022-11-02T00:43:06.196Z,37.28
2022-11-02T00:45:35.147Z,42.00
2022-11-02T00:48:04.936Z,41.13
2022-11-02T00:50:37.645Z,39.38
2022-11-02T00:53:06.752Z,39.97
2022-11-02T00:55:33.518Z,38.35
2022-11-02T00:58:06.738Z,43.80
2022-11-02T01:00:35.902Z,40.33
2022-11-02T01:03:02.958Z,37.53
2022-11-02T01:05:32.541Z,42.75
2022-11-02T01:08:01.599Z,40.70
2022-11-02T01:10:28.701Z,41.75
2022-11-02T01:12:55.655Z,43.17
2022-11-02T01:15:25.003Z,41.38
2022-11-02T01:17:51.779Z,39.97
2022-11-02T01:20:25.059Z,37.92
2022-11-02T01:22:58.835Z,39.83
2022-11-02T01:25:25.928Z,41.38
2022-11-02T01:27:55.772Z,40.15
2022-11-02T01:30:25.149Z,45.58
2022-11-02T01:32:54.254Z,42.20
2022-11-02T01:35:23.888Z,43.60
2022-11-02T01:38:08.259Z,42.97
2022-11-02T01:40:40.724Z,39.15
2022-11-02T01:43:46.245Z,39.47
2022-11-02T01:46:22.582Z,38.83
2022-11-02T01:49:00.337Z,36.88
2022-11-02T01:51:35.431Z,37.60
2022-11-02T01:54:19.619Z,36.13
2022-11-02T01:56:56.099Z,37.47
2022-11-02T01:59:36.168Z,51.45
2022-11-02T02:02:08.010Z,42.08
2022-11-02T02:04:35.224Z,39.58
2022-11-02T02:07:04.616Z,37.70
2022-11-02T02:09:31.748Z,36.40
2022-11-02T02:11:58.726Z,41.30
2022-11-02T02:14:25.431Z,36.40
2022-11-02T02:17:01.376Z,37.38
2022-11-02T02:19:30.878Z,38.03
2022-11-02T02:22:22.420Z,37.77
2022-11-02T02:25:18.138Z,41.45
2022-11-02T02:28:02.511Z,44.13
2022-11-02T02:30:37.281Z,36.63
2022-11-02T02:33:26.700Z,41.90
2022-11-02T02:36:00.935Z,36.33
2022-11-02T02:39:04.557Z,37.33
2022-11-02T02:41:37.224Z,40.13
2022-11-02T02:44:35.809Z,40.42
2022-11-02T02:47:21.680Z,37.53
2022-11-02T02:49:58.481Z,37.25
2022-11-02T02:52:29.157Z,35.53
2022-11-02T02:54:59.848Z,37.85
2022-11-02T02:57:31.741Z,38.83
2022-11-02T03:00:00.835Z,38.88
2022-11-02T03:02:41.802Z,35.63
2022-11-02T03:05:27.826Z,36.63
2022-11-02T03:07:56.203Z,42.58
2022-11-02T03:10:31.521Z,40.65
2022-11-02T03:13:07.499Z,44.70
2022-11-02T03:15:52.778Z,44.90
2022-11-02T03:18:40.531Z,43.88
2022-11-02T03:21:33.299Z,43.10
2022-11-02T03:24:19.907Z,49.88
2022-11-02T03:27:10.728Z,45.17
2022-11-02T03:29:51.275Z,42.80
2022-11-02T03:32:33.499Z,40.50
2022-11-02T03:35:04.602Z,37.88
2022-11-02T03:37:54.675Z,41.40
2022-11-02T03:40:35.579Z,40.83
2022-11-02T03:43:05.390Z,44.72
2022-11-02T03:45:38.465Z,41.03
2022-11-02T03:48:08.591Z,36.90
2022-11-02T03:50:42.062Z,37.75
2022-11-02T03:53:27.088Z,37.13
2022-11-02T03:56:00.349Z,40.30
2022-11-02T03:58:29.187Z,38.20
2022-11-02T04:01:00.027Z,35.53
2022-11-02T04:03:28.365Z,37.55
2022-11-02T04:05:55.028Z,40.38
2022-11-02T04:08:39.093Z,35.08
2022-11-02T04:11:31.853Z,39.03
2022-11-02T04:14:17.767Z,40.28
2022-11-02T04:16:46.667Z,38.72
2022-11-02T04:19:27.907Z,42.63
2022-11-02T04:22:16.465Z,39.63
2022-11-02T04:25:03.431Z,39.72
2022-11-02T04:27:30.174Z,41.92
2022-11-02T04:29:59.087Z,43.53
2022-11-02T04:32:44.360Z,43.67
2022-11-02T04:35:11.147Z,41.03
2022-11-02T04:38:08.208Z,45.78
2022-11-02T04:40:35.062Z,46.38
2022-11-02T04:43:05.039Z,41.72
2022-11-02T04:45:31.716Z,45.45
2022-11-02T04:48:04.516Z,43.50
2022-11-02T04:50:49.758Z,42.72
2022-11-02T04:53:21.842Z,43.03
2022-11-02T04:55:49.079Z,49.83
2022-11-02T04:58:18.271Z,45.92
2022-11-02T05:00:45.501Z,47.40
2022-11-02T05:03:12.721Z,48.50
2022-11-02T05:05:40.538Z,45.13
2022-11-02T05:08:07.475Z,47.33
2022-11-02T05:10:34.364Z,50.33
2022-11-02T05:13:01.583Z,51.60
2022-11-02T05:15:28.425Z,47.75
2022-11-02T05:17:55.347Z,43.47
2022-11-02T05:20:22.160Z,49.05
2022-11-02T05:22:49.107Z,48.03
2022-11-02T05:25:15.885Z,46.95
2022-11-02T05:27:42.631Z,46.13
2022-11-02T05:30:10.140Z,42.25
2022-11-02T05:32:42.173Z,43.78
2022-11-02T05:35:09.388Z,46.95
2022-11-02T05:37:38.439Z,47.05
2022-11-02T05:40:06.059Z,38.72
2022-11-02T05:42:33.424Z,48.22
2022-11-02T05:45:02.104Z,48.28
2022-11-02T05:47:28.745Z,45.58
2022-11-02T05:49:55.429Z,43.15
2022-11-02T05:52:22.981Z,49.40
2022-11-02T05:54:49.654Z,46.20
2022-11-02T05:57:20.385Z,47.35
2022-11-02T05:59:49.363Z,46.47
2022-11-02T06:02:16.285Z,44.67
2022-11-02T06:04:42.984Z,48.10
2022-11-02T06:07:09.670Z,48.80
2022-11-02T06:09:36.656Z,48.35
2022-11-02T06:12:03.534Z,58.42
2022-11-02T06:14:32.863Z,57.13
2022-11-02T06:16:59.543Z,66.50
2022-11-02T06:19:28.958Z,62.72
2022-11-02T06:21:56.429Z,57.27
2022-11-02T06:24:23.188Z,58.65
2022-11-02T06:26:57.195Z,62.15
2022-11-02T06:29:26.031Z,77.53
2022-11-02T06:31:53.052Z,72.30
2022-11-02T06:34:19.857Z,72.75
2022-11-02T06:36:46.577Z,77.35
2022-11-02T06:39:13.325Z,58.00
2022-11-02T06:41:39.994Z,58.65
2022-11-02T06:44:06.794Z,56.58
2022-11-02T06:46:35.931Z,58.08
2022-11-02T06:49:02.648Z,54.20
2022-11-02T06:51:29.383Z,60.80
2022-11-02T06:53:56.167Z,63.45
2022-11-02T06:56:27.208Z,61.65
2022-11-02T06:58:53.846Z,55.10
2022-11-02T07:01:21.166Z,64.95
2022-11-02T07:03:47.935Z,65.38
2022-11-02T07:06:14.757Z,62.13
2022-11-02T07:08:42.615Z,60.95
2022-11-02T07:11:16.782Z,63.72
2022-11-02T07:13:43.996Z,63.28
2022-11-02T07:16:11.347Z,60.88
2022-11-02T07:18:38.079Z,60.05
2022-11-02T07:21:05.264Z,64.22
2022-11-02T07:23:34.589Z,60.50
2022-11-02T07:26:05.236Z,60.95
2022-11-02T07:28:31.940Z,54.53
2022-11-02T07:31:02.499Z,54.95
2022-11-02T07:33:29.160Z,56.47
2022-11-02T07:35:55.875Z,60.75
2022-11-02T07:38:22.527Z,57.78
2022-11-02T07:40:52.815Z,57.67
2022-11-02T07:43:23.005Z,63.60
2022-11-02T07:45:49.694Z,53.90
2022-11-02T07:48:16.400Z,51.75
2022-11-02T07:50:43.077Z,54.10
2022-11-02T07:53:10.022Z,52.92
2022-11-02T07:55:36.748Z,47.40
2022-11-02T07:58:09.430Z,49.92
2022-11-02T08:00:40.744Z,50.08
2022-11-02T08:03:10.155Z,45.83
2022-11-02T08:05:39.703Z,43.17
2022-11-02T08:08:26.606Z,48.85
2022-11-02T08:10:53.471Z,48.08
2022-11-02T08:13:23.201Z,43.90
2022-11-02T08:15:55.670Z,44.45
2022-11-02T08:18:26.367Z,48.03
2022-11-02T08:20:56.367Z,52.28
2022-11-02T08:23:24.180Z,46.50
2022-11-02T08:25:53.963Z,48.75
2022-11-02T08:28:25.505Z,46.72
2022-11-02T08:30:52.741Z,51.53
2022-11-02T08:33:20.460Z,59.45
2022-11-02T08:35:48.092Z,60.92
2022-11-02T08:38:15.510Z,69.80
2022-11-02T08:40:42.425Z,52.70
2022-11-02T08:43:14.023Z,49.72
2022-11-02T08:46:13.371Z,52.95
2022-11-02T08:48:30.702Z,53.33
2022-11-02T08:51:00.005Z,51.38
2022-11-02T08:53:26.867Z,60.45
2022-11-02T08:55:53.547Z,46.78
2022-11-02T08:58:22.708Z,44.95
2022-11-02T09:00:49.858Z,53.53
2022-11-02T09:03:18.659Z,48.58
2022-11-02T09:05:48.830Z,52.28
2022-11-02T09:08:18.182Z,51.63
2022-11-02T09:10:46.528Z,53.70
2022-11-02T09:13:14.859Z,59.60
2022-11-02T09:15:43.147Z,60.35
2022-11-02T09:18:10.299Z,51.58
2022-11-02T09:20:37.114Z,55.60
2022-11-02T09:23:04.035Z,58.65
2022-11-02T09:25:30.923Z,54.40
2022-11-02T09:27:58.443Z,61.80
2022-11-02T09:30:30.983Z,57.22
2022-11-02T09:33:03.483Z,56.22
2022-11-02T09:35:35.092Z,57.40
2022-11-02T09:38:03.482Z,50.97
2022-11-02T09:40:51.849Z,55.97
2022-11-02T09:43:41.082Z,55.88
2022-11-02T09:46:19.473Z,54.15
2022-11-02T09:48:54.042Z,54.88
2022-11-02T09:51:35.268Z,52.83
2022-11-02T09:54:19.220Z,60.90
2022-11-02T09:56:47.045Z,52.17
2022-11-02T09:59:17.953Z,61.63
2022-11-02T10:02:25.050Z,53.40
2022-11-02T10:05:15.788Z,57.58
2022-11-02T10:07:51.313Z,60.92
2022-11-02T10:10:32.051Z,49.05
2022-11-02T10:13:27.396Z,59.17
2022-11-02T10:15:57.862Z,50.78
2022-11-02T10:18:30.045Z,51.15
2022-11-02T10:21:06.009Z,52.65
2022-11-02T10:24:01.103Z,46.35
2022-11-02T10:26:32.020Z,45.35
2022-11-02T10:29:39.228Z,44.20
2022-11-02T10:32:08.754Z,45.38
2022-11-02T10:34:38.267Z,37.92
2022-11-02T10:37:44.761Z,43.20
2022-11-02T10:40:33.419Z,37.53
2022-11-02T10:43:18.739Z,40.97
2022-11-02T10:46:10.184Z,36.15
2022-11-02T10:48:55.860Z,41.08
2022-11-02T10:51:24.953Z,38.10
2022-11-02T10:53:56.254Z,39.13
2022-11-02T10:56:25.160Z,37.67
2022-11-02T10:59:01.660Z,38.75
2022-11-02T11:01:30.254Z,37.40
2022-11-02T11:03:58.525Z,39.35
2022-11-02T11:06:30.801Z,43.05
2022-11-02T11:09:07.325Z,37.60
2022-11-02T11:11:37.451Z,42.90
2022-11-02T11:16:56.773Z,33.15
2022-11-02T11:19:41.771Z,35.95
2022-11-02T11:22:37.085Z,34.33
2022-11-02T11:25:13.648Z,31.73
2022-11-02T11:27:48.541Z,29.48
2022-11-02T11:30:59.638Z,26.90
2022-11-02T11:33:21.046Z,28.85
2022-11-02T11:35:52.041Z,21.13
2022-11-02T11:38:22.572Z,27.40
2022-11-02T11:40:54.161Z,28.25
2022-11-02T11:43:33.279Z,23.10
2022-11-02T11:46:08.449Z,21.50
2022-11-02T11:48:43.053Z,18.20
2022-11-02T11:51:39.664Z,21.55
2022-11-02T11:54:24.698Z,19.10
2022-11-02T11:56:56.780Z,20.55
2022-11-02T11:59:42.390Z,28.23
2022-11-02T12:02:29.057Z,22.95
2022-11-02T12:05:12.476Z,25.02
2022-11-02T12:08:26.862Z,24.08
2022-11-02T12:11:19.043Z,24.38
2022-11-02T12:13:46.052Z,20.80
2022-11-02T12:16:45.526Z,23.67
2022-11-02T12:19:34.073Z,23.23
2022-11-02T12:22:22.028Z,25.00
2022-11-02T12:25:07.396Z,24.83
2022-11-02T12:27:45.544Z,23.65
2022-11-02T12:30:21.272Z,19.15
2022-11-02T12:32:55.875Z,18.77
2022-11-02T12:35:43.148Z,16.40
2022-11-02T12:38:30.161Z,20.65
2022-11-02T12:41:02.964Z,16.58
2022-11-02T12:43:49.134Z,15.20
2022-11-02T12:46:40.468Z,15.80
2022-11-02T12:49:48.021Z,14.18
2022-11-02T12:52:28.339Z,19.45
2022-11-02T12:57:34.886Z,20.10
2022-11-02T13:00:08.577Z,15.13
2022-11-02T13:03:07.687Z,15.68
2022-11-02T13:06:01.619Z,18.10
2022-11-02T13:09:05.095Z,16.40
2022-11-02T13:11:40.804Z,19.38
2022-11-02T13:14:15.501Z,19.75
2022-11-02T13:16:55.487Z,20.42
2022-11-02T13:19:38.303Z,13.80
2022-11-02T13:22:08.527Z,13.68
2022-11-02T13:27:14.795Z,15.95
2022-11-02T13:30:01.807Z,16.58
2022-11-02T13:32:45.376Z,14.20
2022-11-02T13:35:35.562Z,15.70
2022-11-02T13:38:32.081Z,13.57
2022-11-02T13:41:30.545Z,14.50
2022-11-02T13:43:59.824Z,14.73
2022-11-02T13:46:47.499Z,15.90
2022-11-02T13:49:27.663Z,16.45
2022-11-02T13:52:15.994Z,11.40
2022-11-02T13:54:48.829Z,16.02
2022-11-02T13:57:40.190Z,16.65
2022-11-02T14:00:33.836Z,13.18
2022-11-02T14:03:13.698Z,18.63
2022-11-02T14:06:02.037Z,20.58
2022-11-02T14:08:39.343Z,17.95
2022-11-02T14:11:09.005Z,20.05
2022-11-02T14:13:55.810Z,17.83
2022-11-02T14:16:50.723Z,17.02
2022-11-02T14:19:22.642Z,20.65
2022-11-02T14:21:51.793Z,20.35
2022-11-02T14:24:34.117Z,20.85
2022-11-02T14:27:06.698Z,22.27
2022-11-02T14:29:55.900Z,13.68
2022-11-02T14:32:45.181Z,14.05
2022-11-02T14:36:27.235Z,15.48
2022-11-02T14:40:03.154Z,19.05
2022-11-02T14:43:00.629Z,19.90
2022-11-02T14:45:55.596Z,28.35
2022-11-02T14:48:24.981Z,18.83
2022-11-02T14:51:10.247Z,24.77
2022-11-02T14:53:49.622Z,21.55
2022-11-02T14:58:06.532Z,24.98
2022-11-02T15:00:17.834Z,28.67
2022-11-02T15:03:07.548Z,31.13
2022-11-02T15:06:29.308Z,20.45
2022-11-02T15:09:24.042Z,22.90
2022-11-02T15:16:22.716Z,22.17
2022-11-02T15:19:35.178Z,20.38
2022-11-02T15:32:12.513Z,28.00
2022-11-02T15:35:19.399Z,23.88
2022-11-02T15:38:39.464Z,24.77
2022-11-02T15:41:38.241Z,31.05
2022-11-02T15:58:02.712Z,29.08
2022-11-02T16:01:35.357Z,28.85
2022-11-02T16:13:48.727Z,28.67
2022-11-02T16:16:22.799Z,29.40
2022-11-02T16:18:55.151Z,30.10
2022-11-02T16:21:22.038Z,32.83
2022-11-02T16:23:59.654Z,28.08
2022-11-02T16:26:29.739Z,29.33
2022-11-02T16:28:59.519Z,29.30
2022-11-02T16:31:32.064Z,33.15
2022-11-02T16:34:15.506Z,30.13
2022-11-02T16:36:42.536Z,33.42
2022-11-02T16:39:37.521Z,31.05
2022-11-02T16:42:19.145Z,34.67
2022-11-02T16:44:59.030Z,33.13
2022-11-02T16:47:38.094Z,31.70
2022-11-02T16:50:18.652Z,39.38
2022-11-02T16:53:02.523Z,38.25
2022-11-02T16:55:34.909Z,41.17
2022-11-02T16:58:02.633Z,35.55
2022-11-02T17:00:29.624Z,38.75
2022-11-02T17:02:56.521Z,37.33
2022-11-02T17:05:25.928Z,40.20
2022-11-02T17:08:00.391Z,40.90
2022-11-02T17:10:29.291Z,40.20
2022-11-02T17:12:57.254Z,42.72
2022-11-02T17:15:26.919Z,41.47
2022-11-02T17:18:23.775Z,46.17
2022-11-02T17:21:27.510Z,55.53
2022-11-02T17:23:56.013Z,48.58
2022-11-02T17:26:22.805Z,52.10
2022-11-02T17:28:51.657Z,49.55
2022-11-02T17:31:21.334Z,51.35
2022-11-02T17:33:48.645Z,56.28
2022-11-02T17:36:16.449Z,52.88
2022-11-02T17:45:29.378Z,52.03
2022-11-02T17:49:01.543Z,55.17
2022-11-02T17:52:02.831Z,51.03
2022-11-02T18:00:40.972Z,52.83
2022-11-02T18:04:32.132Z,51.70
2022-11-02T18:06:32.989Z,57.20
2022-11-02T18:09:36.674Z,56.47
2022-11-02T18:12:26.820Z,55.55
2022-11-02T18:19:20.898Z,54.58
2022-11-02T18:22:27.818Z,57.33
2022-11-02T18:25:23.960Z,52.50
2022-11-02T18:28:19.099Z,53.38
2022-11-02T18:31:37.674Z,55.92
2022-11-02T18:35:17.189Z,51.03
2022-11-02T18:38:39.097Z,53.45
2022-11-02T18:54:59.450Z,61.03
2022-11-02T19:04:48.922Z,53.55
2022-11-02T19:08:12.473Z,55.80
2022-11-02T19:11:08.389Z,57.50
2022-11-02T19:13:59.861Z,56.10
2022-11-02T19:16:34.380Z,50.15
2022-11-02T19:19:36.430Z,49.50
2022-11-02T19:22:18.667Z,47.83
2022-11-02T19:25:07.678Z,50.55
2022-11-02T19:27:37.284Z,48.92
2022-11-02T19:30:13.013Z,53.15
2022-11-02T19:32:45.431Z,45.80
2022-11-02T19:35:15.948Z,40.08
2022-11-02T19:37:43.361Z,38.30
2022-11-02T19:40:12.909Z,37.95
2022-11-02T19:42:39.804Z,34.63
2022-11-02T19:45:07.670Z,39.03
2022-11-02T19:47:34.509Z,32.83
2022-11-02T19:50:01.288Z,34.42
2022-11-02T19:52:28.012Z,31.90
2022-11-02T19:54:54.883Z,33.47
2022-11-02T19:57:21.640Z,35.28
2022-11-02T19:59:48.308Z,35.42
2022-11-02T20:02:15.785Z,34.65
2022-11-02T20:04:44.490Z,39.85
2022-11-02T20:07:11.472Z,40.10
2022-11-02T20:09:38.232Z,44.22
2022-11-02T20:12:07.559Z,44.97
2022-11-02T20:14:48.094Z,53.15
2022-11-02T20:20:23.290Z,44.28
2022-11-02T20:23:11.966Z,46.05
2022-11-02T20:25:42.554Z,49.22
2022-11-02T20:28:10.440Z,53.00
2022-11-02T20:30:42.088Z,56.97
2022-11-02T20:33:11.924Z,51.67
2022-11-02T20:35:40.022Z,50.17
2022-11-02T20:38:11.685Z,49.88
2022-11-02T20:40:43.052Z,52.95
2022-11-02T20:43:09.782Z,53.97
2022-11-02T20:45:46.327Z,53.03
2022-11-02T20:48:17.605Z,41.80
2022-11-02T20:50:50.649Z,42.83
2022-11-02T20:53:19.619Z,44.85
2022-11-02T20:55:47.930Z,39.17
2022-11-02T20:58:14.691Z,37.47
2022-11-02T21:00:41.459Z,39.20
2022-11-02T21:03:10.518Z,40.28
2022-11-02T21:05:55.234Z,37.25
2022-11-02T21:08:24.935Z,38.63
2022-11-02T21:10:59.330Z,31.50
2022-11-02T21:13:45.112Z,37.42
2022-11-02T21:16:16.991Z,39.30
2022-11-02T21:18:44.377Z,34.58
2022-11-02T21:21:13.911Z,38.22
2022-11-02T21:23:41.098Z,40.57
2022-11-02T21:26:12.999Z,36.65
2022-11-02T21:28:49.781Z,32.95
2022-11-02T21:31:19.483Z,33.92
2022-11-02T21:33:48.106Z,41.85
2022-11-02T21:36:17.537Z,38.38
2022-11-02T21:38:52.076Z,41.87
2022-11-02T21:41:26.641Z,35.53
2022-11-02T21:43:56.488Z,41.35
2022-11-02T21:46:25.963Z,38.70
2022-11-02T21:48:56.738Z,34.30
2022-11-02T21:51:23.920Z,30.38
2022-11-02T21:53:53.630Z,39.47
2022-11-02T21:57:01.248Z,29.88
2022-11-02T21:59:26.197Z,33.13
2022-11-02T22:01:57.293Z,30.40
2022-11-02T22:04:32.765Z,33.85
2022-11-02T22:07:02.652Z,32.03
2022-11-02T22:09:29.831Z,31.20
2022-11-02T22:12:16.101Z,27.42
2022-11-02T22:14:44.868Z,36.67
2022-11-02T22:17:21.980Z,37.70
2022-11-02T22:19:55.595Z,36.47
2022-11-02T22:22:22.414Z,38.13
2022-11-02T22:24:49.710Z,38.97
2022-11-02T22:27:16.565Z,38.13
2022-11-02T22:29:43.371Z,36.70
2022-11-02T22:32:14.656Z,37.95
2022-11-02T22:34:47.947Z,37.85
2022-11-02T22:37:33.543Z,34.30
2022-11-02T22:40:00.206Z,38.28
2022-11-02T22:42:26.906Z,32.75
2022-11-02T22:44:55.252Z,34.80
2022-11-02T22:47:21.952Z,34.75
2022-11-02T22:49:48.835Z,35.03
2022-11-02T22:52:15.531Z,35.63
2022-11-02T22:54:42.249Z,38.42
2022-11-02T22:57:08.876Z,37.92
2022-11-02T22:59:42.217Z,38.33
2022-11-02T23:02:13.208Z,35.20
2022-11-02T23:04:42.637Z,36.80
2022-11-02T23:07:10.773Z,33.97
2022-11-02T23:09:41.956Z,32.67
2022-11-02T23:12:08.693Z,36.90
2022-11-02T23:14:35.410Z,33.50
2022-11-02T23:17:07.462Z,38.03
2022-11-02T23:19:37.375Z,37.67
2022-11-02T23:22:24.489Z,43.25
2022-11-02T23:25:13.919Z,42.75
2022-11-02T23:28:13.893Z,46.47
2022-11-02T23:31:00.047Z,42.10
2022-11-02T23:33:31.997Z,44.72
2022-11-02T23:36:12.496Z,47.80
2022-11-02T23:38:58.597Z,45.97
2022-11-02T23:41:28.058Z,43.47
2022-11-02T23:44:11.673Z,45.92
2022-11-02T23:46:40.090Z,42.90
2022-11-02T23:49:13.974Z,40.55
2022-11-02T23:52:04.062Z,39.38
2022-11-02T23:54:49.496Z,39.58
2022-11-02T23:57:16.371Z,33.20
2022-11-02T23:59:45.210Z,35.67
